Time;durP1;ratioP1;P1;durP2;ratioP2;P2;SDS_P1;SDS_P2;PMS_P1;PMS_P2;Temp;Humidity;BMP_temperature;BMP_pressure;BME280_temperature;BME280_humidity;BME280_pressure;Samples;Min_cycle;Max_cycle;Signal;HPM_P1;HPM_P2
2023/08/22 00:01:11;;;;;;;9.35;5.35;;;;;;;23.48;nan;62004.34;5026279;28;20266;-65
2023/08/22 00:03:36;;;;;;;15.48;5.50;;;;;;;23.65;nan;62127.47;5032213;28;20568;-62
2023/08/22 00:06:01;;;;;;;10.07;5.65;;;;;;;23.55;nan;62212.59;5032007;28;20179;-61
2023/08/22 00:08:27;;;;;;;9.50;5.80;;;;;;;23.60;nan;62054.50;5030385;28;20722;-65
2023/08/22 00:10:54;;;;;;;9.18;5.63;;;;;;;23.41;nan;62045.91;5025609;28;20295;-67
2023/08/22 00:13:19;;;;;;;10.40;5.47;;;;;;;22.88;nan;62046.13;5026236;28;20183;-64
2023/08/22 00:15:46;;;;;;;12.25;5.88;;;;;;;23.04;nan;61920.41;5030606;28;20191;-67
2023/08/22 00:18:12;;;;;;;9.32;5.55;;;;;;;22.98;nan;61929.81;5030324;28;20167;-66
2023/08/22 00:20:37;;;;;;;8.38;5.43;;;;;;;22.39;nan;61957.03;5029641;28;20651;-68
2023/08/22 00:23:06;;;;;;;9.65;6.03;;;;;;;23.07;nan;61944.66;5032042;28;20194;-64
2023/08/22 00:25:31;;;;;;;8.02;6.05;;;;;;;23.25;nan;62030.88;5031822;28;20178;-64
2023/08/22 00:27:57;;;;;;;10.07;5.63;;;;;;;23.00;nan;62046.16;5032490;28;20176;-66
2023/08/22 00:30:22;;;;;;;8.55;6.10;;;;;;;22.99;nan;62196.78;5031045;28;20265;-68
2023/08/22 00:32:48;;;;;;;11.10;5.93;;;;;;;23.10;nan;61916.78;5031780;28;20214;-64
2023/08/22 00:35:14;;;;;;;8.00;5.57;;;;;;;22.95;nan;61826.78;5031984;28;20245;-64
2023/08/22 00:37:39;;;;;;;8.73;5.80;;;;;;;22.94;nan;62094.63;5032722;28;20171;-66
2023/08/22 00:40:05;;;;;;;10.77;6.20;;;;;;;22.86;nan;61927.16;5032406;28;20179;-66
2023/08/22 00:42:31;;;;;;;8.20;5.70;;;;;;;22.89;nan;61972.25;5030803;28;20179;-66
2023/08/22 00:44:57;;;;;;;10.77;6.03;;;;;;;22.79;nan;61903.00;5031824;28;20232;-67
2023/08/22 00:47:22;;;;;;;9.45;5.78;;;;;;;22.70;nan;61935.03;5031815;28;20179;-68
2023/08/22 00:49:48;;;;;;;8.43;5.72;;;;;;;22.56;nan;61997.22;5032137;28;20193;-69
2023/08/22 00:52:14;;;;;;;8.77;5.70;;;;;;;22.28;nan;61835.22;5030719;28;20278;-65
2023/08/22 00:54:41;;;;;;;12.90;6.18;;;;;;;22.29;nan;62075.84;5031960;28;20750;-65
2023/08/22 00:57:06;;;;;;;13.20;5.88;;;;;;;22.15;nan;61755.94;5031910;28;20245;-66
2023/08/22 00:59:32;;;;;;;9.15;5.55;;;;;;;22.43;nan;61888.69;5031871;28;20179;-66
2023/08/22 01:01:57;;;;;;;9.40;6.05;;;;;;;22.36;nan;61891.72;5025630;28;20203;-65
2023/08/22 01:04:23;;;;;;;10.20;6.03;;;;;;;22.07;nan;61839.97;5032180;28;20241;-67
2023/08/22 01:06:49;;;;;;;12.35;5.93;;;;;;;22.39;nan;61931.00;5031741;28;20186;-65
2023/08/22 01:09:32;;;;;;;8.80;5.93;;;;;;;22.40;nan;61963.97;5031973;28;20657;-67
2023/08/22 01:12:29;;;;;;;9.63;5.88;;;;;;;22.32;nan;61951.69;5026033;28;20179;-64
2023/08/22 01:15:02;;;;;;;8.77;5.78;;;;;;;22.03;nan;61753.31;5045493;28;20707;-62
2023/08/22 01:17:29;;;;;;;11.07;6.18;;;;;;;22.24;nan;61869.72;5031882;28;20171;-66
2023/08/22 01:19:54;;;;;;;9.95;6.28;;;;;;;22.36;nan;61889.13;5031377;28;20270;-67
2023/08/22 01:22:25;;;;;;;9.18;6.20;;;;;;;22.56;nan;62186.78;5025765;28;20275;-65
2023/08/22 01:24:50;;;;;;;15.60;6.47;;;;;;;22.60;nan;61949.69;5031414;28;20270;-66
2023/08/22 01:27:18;;;;;;;10.52;6.00;;;;;;;22.64;nan;61932.81;5031265;28;20254;-62
2023/08/22 01:30:04;;;;;;;9.80;6.03;;;;;;;22.57;nan;61948.88;5031867;28;20265;-63
2023/08/22 01:32:36;;;;;;;10.35;5.97;;;;;;;19.47;nan;63396.63;5029766;28;20179;-65
2023/08/22 01:35:05;;;;;;;11.80;7.05;;;;;;;22.44;nan;61895.59;5031500;28;20582;-63
2023/08/22 01:37:32;;;;;;;11.90;7.18;;;;;;;22.41;nan;62066.09;5033836;28;20168;-63
2023/08/22 01:39:58;;;;;;;9.25;6.28;;;;;;;22.42;nan;62018.31;5035444;28;20266;-67
2023/08/22 01:42:24;;;;;;;12.52;6.75;;;;;;;22.34;nan;61909.69;5033955;28;20183;-62
2023/08/22 01:44:50;;;;;;;10.77;6.07;;;;;;;22.02;nan;61962.94;5035574;28;20183;-66
2023/08/22 01:47:15;;;;;;;9.90;6.47;;;;;;;22.13;nan;62099.28;5035224;28;20171;-65
2023/08/22 01:49:40;;;;;;;10.20;5.57;;;;;;;22.08;nan;61958.81;5035346;28;20187;-63
2023/08/22 01:52:06;;;;;;;8.07;5.55;;;;;;;22.23;nan;61803.50;5033100;28;20184;-63
2023/08/22 01:54:32;;;;;;;9.55;6.28;;;;;;;22.52;nan;61908.78;5035009;28;20294;-65
2023/08/22 01:56:57;;;;;;;10.00;5.90;;;;;;;22.35;nan;61858.75;5035433;28;20163;-66
2023/08/22 01:59:23;;;;;;;9.15;5.55;;;;;;;22.52;nan;61903.56;5035114;28;20186;-64
2023/08/22 02:01:48;;;;;;;12.13;5.93;;;;;;;22.32;nan;61993.34;5034201;28;20183;-62
2023/08/22 02:04:14;;;;;;;10.35;6.15;;;;;;;22.63;nan;62004.63;5035415;28;20179;-62
2023/08/22 02:06:39;;;;;;;10.50;5.90;;;;;;;22.61;nan;61956.00;5033445;28;20179;-63
2023/08/22 02:09:05;;;;;;;8.18;5.88;;;;;;;22.36;nan;61857.88;5033911;28;20702;-68
2023/08/22 02:11:31;;;;;;;9.63;6.28;;;;;;;22.60;nan;61900.19;5029577;28;20268;-64
2023/08/22 02:13:56;;;;;;;8.10;5.60;;;;;;;22.70;nan;62168.94;5034449;28;20253;-63
2023/08/22 02:16:22;;;;;;;8.13;5.47;;;;;;;22.62;nan;61889.44;5036344;28;20546;-63
2023/08/22 02:18:47;;;;;;;8.48;6.18;;;;;;;22.69;nan;61917.66;5035050;28;20201;-64
2023/08/22 02:21:12;;;;;;;13.52;6.10;;;;;;;22.56;nan;61903.47;5028538;28;20177;-68
2023/08/22 02:23:38;;;;;;;11.35;6.20;;;;;;;22.41;nan;61891.63;5034942;28;20175;-67
2023/08/22 02:26:03;;;;;;;10.70;6.00;;;;;;;22.67;nan;61926.38;5034489;28;20184;-62
2023/08/22 02:28:29;;;;;;;8.23;5.82;;;;;;;22.48;nan;62055.81;5034722;28;20187;-65
2023/08/22 02:30:55;;;;;;;8.55;5.45;;;;;;;22.69;nan;61915.63;5030544;28;20557;-63
2023/08/22 02:33:21;;;;;;;8.85;5.75;;;;;;;22.57;nan;62008.75;5034635;28;20172;-66
2023/08/22 02:35:46;;;;;;;9.57;5.78;;;;;;;22.34;nan;61982.59;5034198;28;20190;-65
2023/08/22 02:38:12;;;;;;;9.77;6.15;;;;;;;22.37;nan;61920.94;5034234;28;20643;-67
2023/08/22 02:40:37;;;;;;;8.68;5.82;;;;;;;22.31;nan;61865.22;5033438;28;20270;-66
2023/08/22 02:43:03;;;;;;;9.20;5.97;;;;;;;22.38;nan;61787.22;5034332;28;20616;-65
2023/08/22 02:45:28;;;;;;;10.73;6.00;;;;;;;22.47;nan;61995.34;5034422;28;20591;-63
2023/08/22 02:47:54;;;;;;;9.45;6.00;;;;;;;22.59;nan;61953.19;5033593;28;20592;-65
2023/08/22 02:50:23;;;;;;;9.00;5.57;;;;;;;22.58;nan;61860.88;5032640;28;20675;-64
2023/08/22 02:52:49;;;;;;;8.55;5.57;;;;;;;22.59;nan;61912.06;5033120;28;20630;-67
2023/08/22 02:55:14;;;;;;;10.45;5.75;;;;;;;22.69;nan;61928.66;5034055;28;20211;-62
2023/08/22 02:57:39;;;;;;;10.43;6.15;;;;;;;22.39;nan;61889.91;5033812;28;20168;-64
2023/08/22 03:00:07;;;;;;;10.35;6.40;;;;;;;22.43;nan;61951.16;5033442;28;20213;-63
2023/08/22 03:02:33;;;;;;;11.35;6.13;;;;;;;22.26;nan;62039.16;5024830;28;20179;-63
2023/08/22 03:04:58;;;;;;;8.18;5.18;;;;;;;22.43;nan;61959.56;5031726;28;20194;-66
2023/08/22 03:07:23;;;;;;;10.27;6.30;;;;;;;22.19;nan;61882.25;5032234;28;20172;-63
2023/08/22 03:09:49;;;;;;;12.20;6.25;;;;;;;22.32;nan;61894.41;5033587;28;20167;-66
2023/08/22 03:12:14;;;;;;;9.32;5.63;;;;;;;22.37;nan;61866.25;5032028;28;20191;-62
2023/08/22 03:14:40;;;;;;;8.85;5.68;;;;;;;22.38;nan;61995.53;5033020;28;20214;-64
2023/08/22 03:17:05;;;;;;;8.93;6.05;;;;;;;22.30;nan;61881.72;5033297;28;20185;-63
2023/08/22 03:19:30;;;;;;;9.00;5.78;;;;;;;22.31;nan;61830.78;5032701;28;20175;-64
2023/08/22 03:21:56;;;;;;;12.00;5.82;;;;;;;22.48;nan;61943.84;5028247;28;20187;-66
2023/08/22 03:24:21;;;;;;;9.23;5.78;;;;;;;22.39;nan;61913.34;5033004;28;20183;-62
2023/08/22 03:26:47;;;;;;;9.48;5.88;;;;;;;22.39;nan;61912.78;5032796;28;20178;-68
2023/08/22 03:29:12;;;;;;;8.20;5.65;;;;;;;22.27;nan;61962.19;5032954;28;20168;-65
2023/08/22 03:31:37;;;;;;;9.35;5.93;;;;;;;22.40;nan;61880.06;5027723;28;20626;-66
2023/08/22 03:34:03;;;;;;;9.52;6.07;;;;;;;22.32;nan;62006.38;5032706;28;20199;-63
2023/08/22 03:36:28;;;;;;;9.13;5.95;;;;;;;22.35;nan;61851.53;5032147;28;20182;-65
2023/08/22 03:38:54;;;;;;;10.65;6.03;;;;;;;22.41;nan;61904.66;5031876;28;20181;-64
2023/08/22 03:41:19;;;;;;;9.88;6.30;;;;;;;19.59;nan;63506.53;5027431;28;20266;-66
2023/08/22 03:43:45;;;;;;;10.50;6.32;;;;;;;22.56;nan;61893.03;5030916;28;20619;-66
2023/08/22 03:46:10;;;;;;;9.65;5.55;;;;;;;18.36;nan;61530.63;5032024;28;20171;-64
2023/08/22 03:48:36;;;;;;;10.63;6.57;;;;;;;22.48;nan;61936.03;5032029;28;20646;-67
2023/08/22 03:51:08;;;;;;;10.25;5.93;;;;;;;22.81;nan;62014.69;5026781;28;20274;-63
2023/08/22 03:53:34;;;;;;;10.48;5.90;;;;;;;22.95;nan;61988.94;5032595;28;20685;-62
2023/08/22 03:55:59;;;;;;;9.88;6.00;;;;;;;23.36;nan;62011.53;5033174;28;20728;-61
2023/08/22 03:58:25;;;;;;;9.75;6.55;;;;;;;23.59;nan;62058.00;5032614;28;20187;-64
2023/08/22 04:00:50;;;;;;;8.85;6.05;;;;;;;23.86;nan;62117.47;5030094;28;20171;-64
2023/08/22 04:03:15;;;;;;;9.65;6.10;;;;;;;24.23;nan;62224.34;5031665;28;20624;-65
2023/08/22 04:05:44;;;;;;;9.60;5.72;;;;;;;24.55;nan;62425.47;5032557;28;20203;-64
2023/08/22 04:08:09;;;;;;;11.68;6.90;;;;;;;24.96;nan;62309.72;5032733;28;20235;-63
2023/08/22 04:10:35;;;;;;;9.20;5.65;;;;;;;25.37;nan;62285.31;5030872;28;20187;-64
2023/08/22 04:13:00;;;;;;;9.30;5.78;;;;;;;25.61;nan;62534.06;5032269;28;20213;-64
2023/08/22 04:15:25;;;;;;;9.13;5.55;;;;;;;25.92;nan;62606.81;5032334;28;20214;-65
2023/08/22 04:17:51;;;;;;;11.57;6.05;;;;;;;26.40;nan;62384.91;5031986;28;20187;-65
2023/08/22 04:20:16;;;;;;;8.93;5.70;;;;;;;26.65;nan;62406.16;5031405;28;20183;-63
2023/08/22 04:22:42;;;;;;;8.73;5.70;;;;;;;27.06;nan;62533.19;5032339;28;20214;-63
2023/08/22 04:25:09;;;;;;;8.23;6.20;;;;;;;27.15;nan;62509.94;5030854;28;20577;-67
2023/08/22 04:27:34;;;;;;;13.02;6.00;;;;;;;27.21;nan;62522.06;5032227;28;20187;-66
2023/08/22 04:30:00;;;;;;;9.13;5.75;;;;;;;27.04;nan;62439.09;5032145;28;20175;-65
2023/08/22 04:32:26;;;;;;;8.63;5.95;;;;;;;27.20;nan;62539.28;5026244;28;20678;-64
2023/08/22 04:34:51;;;;;;;11.77;6.00;;;;;;;27.24;nan;62530.16;5031915;28;20234;-66
2023/08/22 04:37:17;;;;;;;9.93;6.18;;;;;;;27.45;nan;62604.06;5030707;28;20225;-63
2023/08/22 04:39:42;;;;;;;8.80;5.78;;;;;;;27.18;nan;62644.03;5032074;28;20635;-65
2023/08/22 04:42:07;;;;;;;10.68;6.10;;;;;;;27.20;nan;62549.78;5026240;28;20187;-66
2023/08/22 04:44:33;;;;;;;9.85;6.15;;;;;;;27.00;nan;62450.84;5033357;28;20175;-64
2023/08/22 04:46:58;;;;;;;10.82;6.15;;;;;;;26.92;nan;62477.81;5033148;28;20179;-63
2023/08/22 04:49:24;;;;;;;10.02;6.07;;;;;;;26.91;nan;62582.19;5031472;28;20175;-64
2023/08/22 04:51:49;;;;;;;7.97;5.95;;;;;;;26.91;nan;62708.13;5026916;28;20194;-66
2023/08/22 04:54:15;;;;;;;9.68;5.80;;;;;;;26.75;nan;62601.16;5031074;28;20751;-67
2023/08/22 04:56:40;;;;;;;9.25;5.85;;;;;;;26.44;nan;62452.38;5031527;28;20567;-65
2023/08/22 04:59:06;;;;;;;12.85;6.15;;;;;;;26.55;nan;62549.41;5030595;28;20562;-63
2023/08/22 05:01:31;;;;;;;9.30;6.18;;;;;;;26.36;nan;62384.09;5026937;28;20591;-64
2023/08/22 05:03:57;;;;;;;10.48;6.85;;;;;;;26.30;nan;62531.88;5031056;28;20650;-64
2023/08/22 05:06:22;;;;;;;9.38;6.18;;;;;;;26.09;nan;62386.72;5031270;28;20179;-65
2023/08/22 05:08:47;;;;;;;10.43;5.97;;;;;;;26.34;nan;62407.44;5030758;28;20253;-65
2023/08/22 05:11:13;;;;;;;13.43;6.13;;;;;;;26.20;nan;62417.63;5029833;28;20187;-65
2023/08/22 05:13:38;;;;;;;10.02;5.95;;;;;;;25.74;nan;62319.13;5030967;28;20245;-67
2023/08/22 05:16:04;;;;;;;12.57;6.50;;;;;;;25.96;nan;62369.84;5030856;28;20182;-67
2023/08/22 05:18:29;;;;;;;12.43;6.47;;;;;;;26.14;nan;62395.63;5030802;28;20266;-68
2023/08/22 05:20:54;;;;;;;9.65;6.45;;;;;;;26.15;nan;62391.53;5030677;28;20240;-69
2023/08/22 05:23:20;;;;;;;8.00;5.78;;;;;;;26.30;nan;62424.41;5030854;28;20178;-66
2023/08/22 05:25:45;;;;;;;13.23;5.90;;;;;;;26.43;nan;62438.69;5030955;28;20199;-66
2023/08/22 05:28:10;;;;;;;12.13;5.93;;;;;;;26.53;nan;62416.03;5030807;28;20615;-66
2023/08/22 05:30:37;;;;;;;11.77;5.70;;;;;;;26.82;nan;62485.31;5028171;28;20179;-64
2023/08/22 05:33:03;;;;;;;11.70;6.35;;;;;;;26.96;nan;62700.72;5030453;28;20576;-65
2023/08/22 05:35:29;;;;;;;9.13;5.63;;;;;;;27.10;nan;62795.50;5030841;28;20195;-63
2023/08/22 05:37:54;;;;;;;16.77;5.88;;;;;;;27.26;nan;62592.81;5030869;28;20232;-69
2023/08/22 05:40:20;;;;;;;9.98;5.78;;;;;;;27.35;nan;62558.50;5026509;28;20186;-63
2023/08/22 05:42:45;;;;;;;7.47;5.30;;;;;;;27.42;nan;62618.44;5029408;28;20218;-65
2023/08/22 05:45:10;;;;;;;13.00;6.13;;;;;;;;;;5030692;28;20187;-66
2023/08/22 05:47:36;;;;;;;10.23;6.13;;;;;;;27.56;nan;62831.44;5030820;28;20191;-65
2023/08/22 05:50:03;;;;;;;8.82;5.63;;;;;;;28.02;nan;62742.34;5030652;28;20270;-64
2023/08/22 05:52:29;;;;;;;7.50;5.22;;;;;;;28.21;nan;62653.19;5024931;28;20240;-67
2023/08/22 05:54:55;;;;;;;8.35;5.85;;;;;;;28.19;nan;62664.03;5013307;28;20208;-65
2023/08/22 05:57:22;;;;;;;8.80;5.53;;;;;;;28.27;nan;62667.38;5030699;28;20318;-63
2023/08/22 05:59:48;;;;;;;6.97;5.18;;;;;;;28.62;nan;62710.09;5030549;28;20325;-66
2023/08/22 06:02:14;;;;;;;8.30;5.30;;;;;;;28.72;nan;62749.91;5025546;28;20578;-66
2023/08/22 06:04:39;;;;;;;8.18;5.45;;;;;;;28.65;nan;62779.28;5030386;28;20190;-67
2023/08/22 06:07:05;;;;;;;10.57;5.70;;;;;;;28.80;nan;62764.38;5030803;28;20261;-63
2023/08/22 06:09:31;;;;;;;10.68;5.63;;;;;;;27.34;nan;62698.53;5030619;28;20192;-64
2023/08/22 06:11:56;;;;;;;7.90;5.18;;;;;;;29.24;nan;62885.91;5026038;28;20254;-64
2023/08/22 06:14:22;;;;;;;9.55;5.78;;;;;;;29.38;nan;63056.81;5030754;28;20538;-66
2023/08/22 06:16:47;;;;;;;11.60;6.85;;;;;;;29.32;nan;62939.88;5030236;28;20179;-62
2023/08/22 06:19:12;;;;;;;7.75;5.55;;;;;;;29.46;nan;62915.88;5030228;28;20166;-67
2023/08/22 06:21:38;;;;;;;8.52;5.43;;;;;;;29.56;nan;62955.75;5029676;28;20269;-63
2023/08/22 06:24:04;;;;;;;8.68;5.72;;;;;;;29.40;nan;62951.13;5032646;28;20332;-66
2023/08/22 06:26:30;;;;;;;10.88;6.07;;;;;;;29.57;nan;62848.91;5034000;28;20189;-68
2023/08/22 06:28:55;;;;;;;7.93;5.72;;;;;;;29.67;nan;62907.81;5033608;28;20557;-66
2023/08/22 06:31:21;;;;;;;9.13;5.68;;;;;;;29.42;nan;62819.66;5032387;28;20186;-65
2023/08/22 06:33:46;;;;;;;8.98;6.25;;;;;;;29.42;nan;62808.56;5033906;28;20649;-64
2023/08/22 06:36:12;;;;;;;8.45;5.22;;;;;;;29.87;nan;62996.69;5034114;28;20183;-64
2023/08/22 06:38:37;;;;;;;7.95;5.10;;;;;;;29.74;nan;63029.16;5033866;28;20197;-65
2023/08/22 06:41:05;;;;;;;7.30;5.22;;;;;;;29.95;nan;62963.13;5032635;28;20192;-68
2023/08/22 06:43:30;;;;;;;8.43;5.07;;;;;;;29.98;nan;63000.84;5033698;28;20179;-68
2023/08/22 06:45:56;;;;;;;7.45;5.32;;;;;;;30.00;nan;62922.00;5033547;28;20262;-67
2023/08/22 06:48:22;;;;;;;7.60;5.47;;;;;;;30.02;nan;63079.84;5033090;28;20197;-64
2023/08/22 06:50:49;;;;;;;8.43;5.65;;;;;;;30.33;nan;62993.63;5027870;28;20733;-66
2023/08/22 06:53:14;;;;;;;8.57;5.35;;;;;;;30.05;nan;63046.41;5033470;28;20300;-68
2023/08/22 06:55:41;;;;;;;7.38;4.88;;;;;;;30.11;nan;63008.44;5033418;28;20344;-67
2023/08/22 06:58:07;;;;;;;9.32;5.55;;;;;;;30.37;nan;63155.91;5031894;28;20235;-68
2023/08/22 07:00:32;;;;;;;11.57;5.97;;;;;;;30.22;nan;63057.44;5027291;28;21270;-65
2023/08/22 07:02:58;;;;;;;6.75;4.80;;;;;;;30.26;nan;63006.66;5033349;28;20170;-67
2023/08/22 07:05:23;;;;;;;7.95;5.55;;;;;;;30.40;nan;63069.66;5033438;28;20179;-67
2023/08/22 07:07:48;;;;;;;8.48;5.60;;;;;;;30.26;nan;63073.19;5033443;28;20226;-65
2023/08/22 07:10:14;;;;;;;6.75;5.10;;;;;;;30.65;nan;63122.22;5032462;28;20182;-68
2023/08/22 07:12:39;;;;;;;7.32;4.97;;;;;;;30.58;nan;63148.44;5030170;28;20191;-64
2023/08/22 07:15:05;;;;;;;7.40;5.20;;;;;;;30.77;nan;63122.81;5033299;28;20210;-66
2023/08/22 07:17:31;;;;;;;8.52;5.80;;;;;;;30.83;nan;63313.94;5042306;28;20182;-62
2023/08/22 07:19:56;;;;;;;10.38;5.80;;;;;;;30.74;nan;63166.88;5034212;28;20179;-66
2023/08/22 07:22:22;;;;;;;8.38;5.05;;;;;;;30.79;nan;63016.88;5027992;28;20190;-66
2023/08/22 07:24:48;;;;;;;9.27;5.00;;;;;;;31.07;nan;63080.22;5033215;28;20650;-67
2023/08/22 07:27:14;;;;;;;7.95;5.45;;;;;;;30.92;nan;63173.81;5032853;28;20570;-66
2023/08/22 07:29:39;;;;;;;7.80;5.50;;;;;;;31.32;nan;63293.31;5032687;28;20562;-65
2023/08/22 07:32:08;;;;;;;10.15;5.55;;;;;;;31.13;nan;63203.31;5031058;28;20634;-66
2023/08/22 07:34:33;;;;;;;7.70;5.25;;;;;;;31.62;nan;63287.72;5033125;28;20293;-69
2023/08/22 07:36:58;;;;;;;10.32;5.25;;;;;;;31.61;nan;63247.50;5032855;28;20261;-64
2023/08/22 07:39:24;;;;;;;13.65;5.13;;;;;;;31.75;nan;63459.28;5032745;28;20182;-68
2023/08/22 07:41:50;;;;;;;7.82;5.38;;;;;;;31.92;nan;63309.09;5031940;28;20298;-67
2023/08/22 07:44:16;;;;;;;7.03;5.22;;;;;;;31.99;nan;63301.28;5032248;28;20236;-65
2023/08/22 07:46:41;;;;;;;7.28;5.13;;;;;;;32.01;nan;63404.09;5032006;28;20186;-64
2023/08/22 07:49:07;;;;;;;8.18;4.85;;;;;;;32.32;nan;63333.50;5031876;28;20257;-66
2023/08/22 07:51:34;;;;;;;6.88;4.90;;;;;;;32.31;nan;63319.69;5030484;28;20186;-66
2023/08/22 07:54:01;;;;;;;14.82;6.00;;;;;;;32.56;nan;63350.56;5031493;28;20190;-70
2023/08/22 07:56:27;;;;;;;17.10;7.93;;;;;;;32.60;nan;63484.94;5031428;28;20269;-65
2023/08/22 07:58:52;;;;;;;11.18;6.25;;;;;;;32.81;nan;63498.06;5030740;28;20253;-66
2023/08/22 08:01:17;;;;;;;11.13;6.22;;;;;;;33.08;nan;63653.81;5031112;28;20187;-64
2023/08/22 08:03:43;;;;;;;16.13;6.55;;;;;;;32.95;nan;63421.50;5031869;28;20634;-67
2023/08/22 08:06:08;;;;;;;10.32;5.80;;;;;;;33.18;nan;63527.59;5031914;28;20182;-68
2023/08/22 08:08:34;;;;;;;9.73;5.95;;;;;;;33.48;nan;63593.50;5032229;28;20218;-67
2023/08/22 08:10:59;;;;;;;11.95;6.43;;;;;;;33.71;nan;63593.59;5027044;28;20273;-68
2023/08/22 08:13:25;;;;;;;14.18;6.63;;;;;;;33.67;nan;63596.34;5031721;28;20217;-69
2023/08/22 08:15:50;;;;;;;7.78;5.00;;;;;;;33.94;nan;63606.34;5032703;28;20658;-66
2023/08/22 08:18:16;;;;;;;11.65;6.15;;;;;;;34.02;nan;63662.81;5032475;28;20202;-70
2023/08/22 08:20:42;;;;;;;11.27;6.25;;;;;;;33.97;nan;63664.97;5027213;28;20179;-69
2023/08/22 08:23:08;;;;;;;6.68;4.93;;;;;;;33.82;nan;63613.13;5032228;28;20652;-64
2023/08/22 08:25:33;;;;;;;10.00;6.55;;;;;;;33.82;nan;63581.88;5032192;28;20183;-64
2023/08/22 08:27:59;;;;;;;14.98;6.47;;;;;;;33.86;nan;63811.44;5032091;28;20210;-65
2023/08/22 08:30:24;;;;;;;11.13;6.13;;;;;;;34.04;nan;63819.63;5028983;28;20179;-67
2023/08/22 08:32:50;;;;;;;8.13;4.55;;;;;;;33.85;nan;63725.94;5031693;28;20627;-66
2023/08/22 08:35:16;;;;;;;10.77;5.03;;;;;;;33.25;nan;63525.06;5031837;28;20285;-65
2023/08/22 08:37:41;;;;;;;7.50;5.05;;;;;;;33.30;nan;63544.09;5032294;28;20170;-68
2023/08/22 08:40:10;;;;;;;8.07;4.72;;;;;;;32.92;nan;63418.06;5031975;28;20181;-63
2023/08/22 08:42:38;;;;;;;7.40;4.82;;;;;;;33.20;nan;63500.19;5030269;28;20194;-65
2023/08/22 08:45:05;;;;;;;7.22;5.10;;;;;;;33.49;nan;63737.84;5032162;28;20265;-68
2023/08/22 08:47:32;;;;;;;6.07;4.13;;;;;;;33.69;nan;63556.22;5031566;28;20179;-68
2023/08/22 08:50:01;;;;;;;5.80;4.55;;;;;;;33.84;nan;63644.63;5030999;28;20190;-69
2023/08/22 08:52:29;;;;;;;7.82;4.45;;;;;;;33.00;nan;63575.06;5030290;28;20348;-68
2023/08/22 08:54:57;;;;;;;7.10;4.70;;;;;;;34.13;nan;63736.56;5032333;28;20244;-65
2023/08/22 08:57:22;;;;;;;7.72;5.00;;;;;;;34.39;nan;63716.28;5032434;28;20278;-66
2023/08/22 08:59:47;;;;;;;7.70;4.65;;;;;;;34.46;nan;63835.91;5031801;28;20167;-68
2023/08/22 09:02:17;;;;;;;8.10;5.15;;;;;;;34.65;nan;63864.78;5030591;28;20564;-67
2023/08/22 09:04:42;;;;;;;8.68;5.47;;;;;;;34.81;nan;63767.03;5031433;28;20747;-69
2023/08/22 09:07:08;;;;;;;7.68;5.18;;;;;;;34.79;nan;63801.91;5031609;28;20211;-70
2023/08/22 09:09:37;;;;;;;5.82;4.43;;;;;;;34.79;nan;63823.16;5031044;28;20183;-68
2023/08/22 09:12:15;;;;;;;7.25;4.90;;;;;;;34.56;nan;63714.72;5030236;28;20566;-67
2023/08/22 09:14:44;;;;;;;7.85;5.32;;;;;;;34.15;nan;63670.47;5031305;28;20205;-70
2023/08/22 09:17:13;;;;;;;6.32;4.45;;;;;;;33.87;nan;63618.91;5031474;28;20179;-68
2023/08/22 09:19:39;;;;;;;6.95;4.38;;;;;;;34.24;nan;63671.78;5031367;28;20617;-67
2023/08/22 09:22:05;;;;;;;7.07;4.80;;;;;;;33.93;nan;63652.97;5030068;28;20205;-66
2023/08/22 09:24:31;;;;;;;6.72;4.75;;;;;;;34.37;nan;63739.94;5031531;28;20638;-68
2023/08/22 09:26:56;;;;;;;6.18;4.57;;;;;;;34.21;nan;63660.34;5031144;28;20171;-66
2023/08/22 09:29:28;;;;;;;6.50;4.50;;;;;;;34.58;nan;63719.13;5032123;28;20216;-69
2023/08/22 09:32:12;;;;;;;7.18;4.85;;;;;;;34.67;nan;63764.09;5031246;28;20661;-65
2023/08/22 09:34:37;;;;;;;7.22;4.75;;;;;;;34.91;nan;63821.13;5031165;28;20190;-67
2023/08/22 09:37:03;;;;;;;8.43;4.80;;;;;;;34.90;nan;63824.72;5031776;28;20245;-69
2023/08/22 09:39:30;;;;;;;7.68;5.03;;;;;;;34.77;nan;63826.16;5031330;28;20171;-63
2023/08/22 09:41:58;;;;;;;6.35;4.63;;;;;;;35.05;nan;63905.31;5043944;28;20233;-63
2023/08/22 09:44:28;;;;;;;6.70;4.82;;;;;;;34.90;nan;63782.75;5032112;28;20182;-67
2023/08/22 09:46:55;;;;;;;5.30;4.10;;;;;;;35.05;nan;63910.63;5031205;28;20170;-70
2023/08/22 09:49:22;;;;;;;5.97;4.65;;;;;;;35.14;nan;63900.41;5030909;28;20233;-70
2023/08/22 09:51:50;;;;;;;6.70;4.60;;;;;;;33.88;nan;63782.50;5030995;28;20665;-67
2023/08/22 09:54:16;;;;;;;10.20;4.93;;;;;;;34.71;nan;63845.19;5030924;28;20281;-65
2023/08/22 09:56:42;;;;;;;9.32;4.68;;;;;;;34.84;nan;63860.84;5030920;28;20282;-69
2023/08/22 09:59:10;;;;;;;6.30;4.53;;;;;;;34.79;nan;63881.03;5033286;28;20237;-68
2023/08/22 10:01:38;;;;;;;5.10;4.05;;;;;;;34.98;nan;63839.88;5034972;28;20673;-67
2023/08/22 10:04:07;;;;;;;9.23;4.90;;;;;;;35.17;nan;63831.53;5034835;28;20171;-68
2023/08/22 10:06:34;;;;;;;7.45;4.40;;;;;;;35.41;nan;63867.34;5034917;28;20170;-65
2023/08/22 10:09:07;;;;;;;6.65;4.78;;;;;;;35.43;nan;63893.56;5034353;28;20214;-68
2023/08/22 10:11:36;;;;;;;6.07;4.78;;;;;;;35.42;nan;63990.84;5034662;28;20159;-65
2023/08/22 10:14:04;;;;;;;7.18;5.32;;;;;;;35.40;nan;63933.25;5034576;28;20190;-68
2023/08/22 10:16:29;;;;;;;9.93;6.18;;;;;;;35.57;nan;63952.38;5034083;28;20174;-70
2023/08/22 10:19:02;;;;;;;11.13;5.93;;;;;;;35.56;nan;63969.84;5035214;28;20194;-69
2023/08/22 10:21:32;;;;;;;10.15;6.25;;;;;;;35.32;nan;63963.28;5033092;28;20182;-67
2023/08/22 10:23:58;;;;;;;12.00;4.90;;;;;;;34.50;nan;63654.06;5034343;28;20174;-72
2023/08/22 10:26:46;;;;;;;8.07;5.47;;;;;;;34.79;nan;63817.84;5034148;28;20618;-67
2023/08/22 10:29:18;;;;;;;6.15;4.68;;;;;;;34.98;nan;63911.66;5034276;28;20641;-67
2023/08/22 10:32:02;;;;;;;7.07;5.10;;;;;;;34.82;nan;63849.97;5033993;28;20258;-66
2023/08/22 10:34:56;;;;;;;8.05;5.20;;;;;;;35.08;nan;63872.16;5033990;28;20186;-69
2023/08/22 10:37:26;;;;;;;7.00;5.57;;;;;;;35.16;nan;63846.88;5033792;28;20308;-68
2023/08/22 10:39:54;;;;;;;7.18;5.00;;;;;;;35.15;nan;63811.13;5034093;28;20171;-65
2023/08/22 10:42:20;;;;;;;8.65;4.93;;;;;;;35.21;nan;63913.84;5033802;28;20175;-67
2023/08/22 10:44:56;;;;;;;8.52;4.97;;;;;;;35.34;nan;63933.66;5033568;28;20554;-70
2023/08/22 10:47:26;;;;;;;7.97;5.68;;;;;;;35.52;nan;63884.81;5033736;28;20599;-69
2023/08/22 10:49:54;;;;;;;7.30;5.15;;;;;;;35.58;nan;63977.50;5033490;28;20563;-68
2023/08/22 10:52:26;;;;;;;6.15;4.65;;;;;;;35.33;nan;63823.47;5033951;28;20171;-68
2023/08/22 10:54:57;;;;;;;8.43;5.50;;;;;;;35.01;nan;63883.22;5033266;28;20198;-63
2023/08/22 10:57:24;;;;;;;8.73;5.15;;;;;;;35.01;nan;63832.13;5033311;28;20179;-69
2023/08/22 11:00:21;;;;;;;6.40;4.68;;;;;;;34.80;nan;63821.09;5033040;28;20601;-63
2023/08/22 11:03:05;;;;;;;7.40;4.90;;;;;;;34.69;nan;63955.03;5033382;28;20162;-68
2023/08/22 11:05:30;;;;;;;9.48;4.95;;;;;;;34.51;nan;63817.81;5033480;28;20185;-67
2023/08/22 11:07:56;;;;;;;7.30;4.80;;;;;;;34.14;nan;63679.34;5033303;28;20227;-62
2023/08/22 11:10:23;;;;;;;6.68;4.80;;;;;;;34.52;nan;63733.41;5032618;28;20266;-67
2023/08/22 11:12:50;;;;;;;7.15;5.00;;;;;;;34.56;nan;63789.09;5032707;28;20181;-64
2023/08/22 11:15:19;;;;;;;6.95;4.97;;;;;;;35.06;nan;63933.63;5033250;28;20217;-65
2023/08/22 11:17:45;;;;;;;8.45;5.53;;;;;;;35.54;nan;63940.94;5033177;28;20185;-68
2023/08/22 11:20:16;;;;;;;6.65;4.78;;;;;;;35.79;nan;64057.25;5033477;28;20167;-65
2023/08/22 11:22:42;;;;;;;9.40;5.20;;;;;;;35.80;nan;63906.66;5032942;28;20163;-65
2023/08/22 11:25:08;;;;;;;6.13;4.60;;;;;;;35.77;nan;63988.38;5033073;28;20199;-68
2023/08/22 11:27:37;;;;;;;8.02;5.05;;;;;;;35.41;nan;63998.25;5032848;28;20217;-65
2023/08/22 11:30:03;;;;;;;8.73;5.00;;;;;;;;;;5031444;28;20194;-65
2023/08/22 11:32:30;;;;;;;6.72;4.82;;;;;;;35.23;nan;63944.84;5032897;28;20556;-70
2023/08/22 11:35:00;;;;;;;6.93;5.18;;;;;;;35.40;nan;63826.84;5032434;28;20214;-67
2023/08/22 11:37:27;;;;;;;5.95;4.60;;;;;;;35.54;nan;63985.59;5033054;28;20186;-69
2023/08/22 11:39:53;;;;;;;6.43;4.82;;;;;;;35.57;nan;63944.41;5032867;28;20631;-66
2023/08/22 11:42:20;;;;;;;8.07;4.47;;;;;;;35.84;nan;64063.63;5032225;28;20524;-66
2023/08/22 11:44:51;;;;;;;6.72;4.95;;;;;;;36.38;nan;64127.94;5032683;28;20195;-68
2023/08/22 11:47:17;;;;;;;9.05;4.85;;;;;;;36.24;nan;64127.63;5032693;28;20241;-65